createdAt,value
2022-11-20T00:01:06.805Z,15.25
2022-11-20T00:03:34.166Z,19.20
2022-11-20T00:06:03.896Z,18.30
2022-11-20T00:08:31.288Z,16.75
2022-11-20T00:10:58.611Z,16.88
2022-11-20T00:13:25.895Z,18.15
2022-11-20T00:15:58.510Z,16.17
2022-11-20T00:18:26.280Z,17.92
2022-11-20T00:20:53.602Z,18.08
2022-11-20T00:23:21.009Z,17.75
2022-11-20T00:25:48.540Z,16.08
2022-11-20T00:28:15.836Z,17.17
2022-11-20T00:30:43.155Z,16.42
2022-11-20T00:33:10.626Z,16.95
2022-11-20T00:35:37.986Z,18.88
2022-11-20T00:38:05.359Z,15.70
2022-11-20T00:40:32.581Z,15.88
2022-11-20T00:42:59.838Z,17.50
2022-11-20T00:45:27.161Z,16.13
2022-11-20T00:47:54.462Z,18.80
2022-11-20T00:50:22.166Z,17.73
2022-11-20T00:52:49.561Z,16.30
2022-11-20T00:55:16.867Z,17.10
2022-11-20T00:57:44.184Z,18.45
2022-11-20T01:00:11.704Z,18.13
2022-11-20T01:02:39.006Z,16.08
2022-11-20T01:05:06.320Z,17.60
2022-11-20T01:07:33.858Z,17.38
2022-11-20T01:10:01.149Z,15.95
2022-11-20T01:12:28.455Z,15.90
2022-11-20T01:14:55.762Z,17.17
2022-11-20T01:17:23.098Z,16.48
2022-11-20T01:19:51.690Z,18.60
2022-11-20T01:22:18.974Z,15.55
2022-11-20T01:24:46.293Z,15.90
2022-11-20T01:27:13.585Z,17.55
2022-11-20T01:29:40.830Z,18.23
2022-11-20T01:32:08.157Z,17.25
2022-11-20T01:34:35.468Z,16.00
2022-11-20T01:37:02.864Z,16.65
2022-11-20T01:39:30.169Z,16.42
2022-11-20T01:42:16.108Z,17.92
2022-11-20T01:44:43.424Z,17.27
2022-11-20T01:47:11.265Z,16.55
2022-11-20T01:49:48.795Z,16.20
2022-11-20T01:52:21.373Z,15.90
2022-11-20T01:54:57.829Z,16.27
2022-11-20T01:57:26.957Z,16.25
2022-11-20T01:59:56.578Z,17.08
2022-11-20T02:02:23.974Z,17.38
2022-11-20T02:04:53.119Z,16.70
2022-11-20T02:07:20.738Z,16.40
2022-11-20T02:09:48.076Z,16.80
2022-11-20T02:12:35.199Z,15.82
2022-11-20T02:15:02.838Z,16.27
2022-11-20T02:17:30.121Z,16.75
2022-11-20T02:19:57.477Z,16.48
2022-11-20T02:22:32.738Z,17.73
2022-11-20T02:25:02.609Z,16.00
2022-11-20T02:27:30.597Z,16.30
2022-11-20T02:30:11.885Z,16.02
2022-11-20T02:32:39.796Z,16.88
2022-11-20T02:35:19.331Z,16.42
2022-11-20T02:37:49.329Z,15.82
2022-11-20T02:40:16.663Z,15.45
2022-11-20T02:42:44.177Z,16.27
2022-11-20T02:45:12.004Z,16.25
2022-11-20T02:47:39.296Z,16.35
2022-11-20T02:50:07.083Z,16.80
2022-11-20T02:52:34.341Z,14.32
2022-11-20T02:55:01.659Z,14.00
2022-11-20T02:57:29.078Z,15.40
2022-11-20T02:59:56.716Z,15.02
2022-11-20T03:02:23.950Z,13.80
2022-11-20T03:04:51.298Z,14.68
2022-11-20T03:07:18.552Z,15.75
2022-11-20T03:09:45.856Z,16.13
2022-11-20T03:12:13.090Z,15.80
2022-11-20T03:14:40.398Z,15.82
2022-11-20T03:17:07.626Z,14.80
2022-11-20T03:19:37.573Z,15.60
2022-11-20T03:22:05.301Z,15.20
2022-11-20T03:24:32.857Z,12.75
2022-11-20T03:27:06.274Z,15.38
2022-11-20T03:29:33.542Z,15.55
2022-11-20T03:32:02.815Z,13.80
2022-11-20T03:34:30.489Z,12.93
2022-11-20T03:36:58.227Z,11.73
2022-11-20T03:39:26.030Z,12.02
2022-11-20T03:41:54.022Z,11.88
2022-11-20T03:44:24.995Z,13.23
2022-11-20T03:46:53.379Z,12.98
2022-11-20T03:49:21.006Z,10.77
2022-11-20T03:51:49.410Z,12.45
2022-11-20T03:54:19.250Z,12.55
2022-11-20T03:56:46.944Z,12.55
2022-11-20T03:59:14.482Z,11.98
2022-11-20T04:01:44.336Z,12.23
2022-11-20T04:04:17.007Z,11.95
2022-11-20T04:06:44.799Z,11.90
2022-11-20T04:09:12.663Z,12.95
2022-11-20T04:11:42.316Z,10.60
2022-11-20T04:14:15.346Z,12.23
2022-11-20T04:16:46.257Z,10.77
2022-11-20T04:19:15.166Z,11.55
2022-11-20T04:21:44.165Z,11.65
2022-11-20T04:24:11.822Z,13.30
2022-11-20T04:26:42.221Z,13.02
2022-11-20T04:29:12.218Z,12.00
2022-11-20T04:31:39.741Z,13.85
2022-11-20T04:34:08.523Z,11.80
2022-11-20T04:36:36.593Z,13.20
2022-11-20T04:39:08.458Z,13.18
2022-11-20T04:41:41.994Z,12.68
2022-11-20T04:44:11.313Z,12.48
2022-11-20T04:46:40.525Z,14.35
2022-11-20T04:51:41.134Z,10.98
2022-11-20T04:54:08.592Z,12.65
2022-11-20T04:56:39.153Z,13.10
2022-11-20T04:59:10.103Z,13.93
2022-11-20T05:01:38.146Z,13.65
2022-11-20T05:04:08.125Z,12.60
2022-11-20T05:06:44.489Z,14.32
2022-11-20T05:09:16.955Z,13.43
2022-11-20T05:11:50.327Z,13.65
2022-11-20T05:14:27.180Z,14.27
2022-11-20T05:17:08.025Z,13.32
2022-11-20T05:19:37.829Z,12.82
2022-11-20T05:22:08.537Z,13.90
2022-11-20T05:24:37.444Z,14.13
2022-11-20T05:27:06.861Z,14.45
2022-11-20T05:29:34.181Z,16.23
2022-11-20T05:32:01.465Z,15.05
2022-11-20T05:34:28.758Z,15.05
2022-11-20T05:36:56.027Z,15.65
2022-11-20T05:39:24.090Z,14.88
2022-11-20T05:42:11.943Z,14.13
2022-11-20T05:44:39.707Z,13.27
2022-11-20T05:47:07.346Z,15.25
2022-11-20T05:49:37.003Z,14.80
2022-11-20T05:52:07.533Z,14.30
2022-11-20T05:54:34.968Z,14.15
2022-11-20T05:57:02.442Z,17.08
2022-11-20T05:59:30.028Z,15.88
2022-11-20T06:01:57.766Z,15.35
2022-11-20T06:04:29.703Z,14.88
2022-11-20T06:06:59.694Z,15.30
2022-11-20T06:09:29.444Z,16.75
2022-11-20T06:11:57.259Z,14.57
2022-11-20T06:14:27.294Z,16.27
2022-11-20T06:16:54.871Z,15.80
2022-11-20T06:19:22.338Z,15.52
2022-11-20T06:21:50.731Z,15.63
2022-11-20T06:24:20.054Z,14.50
2022-11-20T06:26:47.345Z,15.32
2022-11-20T06:29:14.561Z,13.93
2022-11-20T06:31:43.515Z,14.18
2022-11-20T06:34:11.354Z,16.35
2022-11-20T06:36:41.688Z,14.65
2022-11-20T06:39:12.881Z,14.55
2022-11-20T06:41:40.341Z,15.38
2022-11-20T06:44:08.044Z,17.20
2022-11-20T06:46:35.610Z,17.20
2022-11-20T06:49:06.910Z,15.15
2022-11-20T06:51:34.655Z,16.63
2022-11-20T06:54:02.126Z,16.88
2022-11-20T06:56:29.530Z,15.32
2022-11-20T06:58:56.870Z,17.08
2022-11-20T07:01:25.698Z,16.60
2022-11-20T07:03:54.447Z,15.50
2022-11-20T07:06:22.012Z,14.68
2022-11-20T07:08:49.244Z,17.70
2022-11-20T07:11:16.534Z,17.25
2022-11-20T07:13:44.491Z,16.17
2022-11-20T07:16:15.713Z,15.05
2022-11-20T07:18:48.842Z,15.57
2022-11-20T07:21:20.379Z,15.05
2022-11-20T07:23:48.023Z,13.52
2022-11-20T07:26:23.112Z,16.10
2022-11-20T07:28:58.300Z,13.10
2022-11-20T07:31:25.684Z,13.38
2022-11-20T07:33:53.391Z,14.23
2022-11-20T07:36:20.813Z,16.77
2022-11-20T07:38:53.598Z,17.02
2022-11-20T07:41:21.434Z,44.15
2022-11-20T07:43:48.690Z,17.15
2022-11-20T07:46:15.966Z,42.80
2022-11-20T07:48:43.918Z,21.60
2022-11-20T07:51:14.543Z,21.17
2022-11-20T07:53:44.389Z,15.57
2022-11-20T07:56:12.635Z,13.00
2022-11-20T07:58:40.019Z,13.85
2022-11-20T08:01:07.957Z,12.95
2022-11-20T08:03:37.672Z,11.10
2022-11-20T08:06:05.404Z,11.93
2022-11-20T08:08:34.049Z,11.85
2022-11-20T08:11:21.004Z,13.70
2022-11-20T08:14:07.016Z,10.82
2022-11-20T08:16:34.730Z,13.13
2022-11-20T08:19:01.935Z,12.95
2022-11-20T08:21:37.823Z,12.23
2022-11-20T08:24:06.444Z,13.30
2022-11-20T08:26:45.009Z,13.48
2022-11-20T08:29:22.785Z,11.60
2022-11-20T08:31:52.359Z,12.70
2022-11-20T08:34:22.963Z,9.65
2022-11-20T08:36:50.626Z,12.98
2022-11-20T08:39:21.617Z,11.63
2022-11-20T08:41:50.006Z,12.85
2022-11-20T08:44:17.626Z,14.38
2022-11-20T08:46:46.929Z,13.50
2022-11-20T08:49:15.060Z,15.88
2022-11-20T08:51:42.732Z,16.48
2022-11-20T08:54:11.664Z,17.90
2022-11-20T08:56:38.868Z,17.45
2022-11-20T08:59:43.258Z,23.70
2022-11-20T09:01:53.540Z,17.95
2022-11-20T09:04:20.776Z,16.10
2022-11-20T09:06:53.283Z,17.60
2022-11-20T09:09:21.024Z,18.90
2022-11-20T09:11:48.552Z,23.85
2022-11-20T09:14:16.268Z,17.23
2022-11-20T09:16:43.464Z,13.77
2022-11-20T09:19:34.504Z,20.73
2022-11-20T09:21:59.833Z,17.58
2022-11-20T09:24:28.799Z,16.27
2022-11-20T09:26:56.120Z,14.40
2022-11-20T09:29:24.883Z,16.08
2022-11-20T09:31:52.154Z,14.73
2022-11-20T09:34:19.412Z,13.40
2022-11-20T09:36:47.197Z,14.77
2022-11-20T09:39:14.486Z,14.48
2022-11-20T09:41:52.952Z,17.35
2022-11-20T09:44:40.419Z,15.52
2022-11-20T09:47:11.986Z,14.10
2022-11-20T09:49:54.335Z,13.75
2022-11-20T09:52:28.149Z,13.82
2022-11-20T09:54:56.343Z,14.98
2022-11-20T09:57:25.705Z,14.80
2022-11-20T09:59:58.575Z,15.63
2022-11-20T10:02:25.888Z,15.90
2022-11-20T10:05:02.620Z,16.02
2022-11-20T10:07:34.016Z,15.93
2022-11-20T10:10:02.020Z,16.65
2022-11-20T10:12:47.907Z,16.60
2022-11-20T10:15:18.297Z,18.33
2022-11-20T10:18:04.481Z,19.92
2022-11-20T10:20:50.382Z,16.70
2022-11-20T10:23:36.172Z,17.60
2022-11-20T10:26:06.357Z,16.27
2022-11-20T10:28:52.746Z,18.05
2022-11-20T10:31:35.084Z,17.45
2022-11-20T10:34:12.370Z,19.70
2022-11-20T10:36:46.089Z,18.38
2022-11-20T10:39:13.480Z,22.00
2022-11-20T10:41:42.597Z,18.58
2022-11-20T10:44:37.472Z,20.25
2022-11-20T10:47:06.129Z,18.25
2022-11-20T10:49:35.308Z,20.00
2022-11-20T10:52:02.586Z,21.58
2022-11-20T10:54:38.154Z,19.95
2022-11-20T10:57:19.843Z,20.55
2022-11-20T11:00:05.459Z,20.10
2022-11-20T11:02:34.539Z,16.92
2022-11-20T11:05:11.646Z,19.60
2022-11-20T11:07:41.868Z,20.02
2022-11-20T11:10:17.012Z,18.38
2022-11-20T11:12:45.803Z,17.88
2022-11-20T11:15:16.300Z,19.77
2022-11-20T11:17:48.736Z,17.77
2022-11-20T11:20:17.918Z,18.38
2022-11-20T11:22:46.749Z,18.13
2022-11-20T11:25:21.016Z,16.88
2022-11-20T11:27:49.132Z,16.08
2022-11-20T11:30:19.721Z,18.08
2022-11-20T11:32:47.297Z,17.10
2022-11-20T11:35:28.441Z,18.60
2022-11-20T11:38:03.781Z,16.95
2022-11-20T11:40:32.949Z,17.10
2022-11-20T11:43:02.894Z,19.85
2022-11-20T11:45:30.220Z,18.25
2022-11-20T11:47:59.125Z,18.38
2022-11-20T11:50:27.580Z,16.25
2022-11-20T11:53:07.456Z,13.25
2022-11-20T11:55:40.404Z,14.77
2022-11-20T11:58:13.500Z,15.25
2022-11-20T12:00:42.324Z,14.65
2022-11-20T12:03:45.287Z,14.32
2022-11-20T12:06:16.374Z,10.55
2022-11-20T12:08:43.648Z,14.77
2022-11-20T12:11:31.527Z,13.80
2022-11-20T12:14:24.692Z,12.02
2022-11-20T12:16:53.721Z,11.63
2022-11-20T12:19:21.709Z,12.73
2022-11-20T12:22:05.309Z,13.68
2022-11-20T12:24:38.469Z,13.27
2022-11-20T12:27:24.881Z,16.27
2022-11-20T12:30:11.893Z,13.93
2022-11-20T12:32:42.534Z,7.63
2022-11-20T12:35:30.089Z,20.40
2022-11-20T12:38:13.854Z,10.48
2022-11-20T12:40:46.625Z,11.30
2022-11-20T12:43:43.626Z,11.90
2022-11-20T12:46:35.816Z,8.23
2022-11-20T12:49:09.101Z,10.40
2022-11-20T12:51:40.543Z,10.00
2022-11-20T12:54:14.180Z,10.25
2022-11-20T12:56:41.585Z,10.48
2022-11-20T12:59:26.024Z,10.85
2022-11-20T13:01:57.627Z,10.90
2022-11-20T13:04:30.941Z,11.48
2022-11-20T13:06:59.396Z,11.75
2022-11-20T13:09:27.601Z,14.57
2022-11-20T13:11:54.917Z,9.40
2022-11-20T13:14:33.804Z,13.60
2022-11-20T13:17:06.091Z,11.07
2022-11-20T13:19:34.119Z,11.27
2022-11-20T13:22:01.622Z,12.18
2022-11-20T13:24:30.977Z,13.25
2022-11-20T13:27:06.617Z,12.57
2022-11-20T13:29:35.354Z,11.10
2022-11-20T13:32:14.648Z,9.98
2022-11-20T13:34:52.969Z,12.07
2022-11-20T13:37:32.982Z,11.38
2022-11-20T13:40:09.370Z,11.73
2022-11-20T13:42:38.080Z,11.95
2022-11-20T13:45:10.597Z,10.73
2022-11-20T13:47:37.985Z,11.60
2022-11-20T13:50:06.079Z,10.75
2022-11-20T13:52:52.318Z,14.25
2022-11-20T13:55:30.964Z,12.48
2022-11-20T13:58:01.078Z,12.00
2022-11-20T14:00:28.479Z,12.00
2022-11-20T14:03:08.057Z,13.82
2022-11-20T14:05:40.250Z,10.75
2022-11-20T14:08:08.740Z,11.45
2022-11-20T14:10:36.163Z,14.18
2022-11-20T14:13:17.597Z,14.88
2022-11-20T14:15:45.426Z,13.20
2022-11-20T14:18:20.494Z,13.68
2022-11-20T14:20:48.257Z,12.70
2022-11-20T14:23:29.470Z,15.57
2022-11-20T14:26:01.704Z,11.55
2022-11-20T14:28:33.524Z,11.90
2022-11-20T14:31:00.883Z,12.50
2022-11-20T14:33:28.713Z,9.57
2022-11-20T14:35:57.026Z,15.15
2022-11-20T14:38:26.678Z,12.45
2022-11-20T14:40:54.044Z,12.80
2022-11-20T14:43:26.037Z,12.65
2022-11-20T14:46:09.918Z,25.15
2022-11-20T14:48:39.872Z,9.80
2022-11-20T14:51:07.329Z,12.43
2022-11-20T14:53:34.658Z,12.32
2022-11-20T14:56:03.099Z,12.68
2022-11-20T14:58:32.783Z,10.60
2022-11-20T15:01:00.368Z,11.98
2022-11-20T15:03:38.396Z,9.88
2022-11-20T15:06:09.490Z,12.13
2022-11-20T15:08:36.927Z,12.02
2022-11-20T15:11:04.569Z,10.10
2022-11-20T15:13:34.100Z,13.13
2022-11-20T15:16:02.714Z,12.25
2022-11-20T15:18:31.854Z,12.98
2022-11-20T15:21:12.223Z,13.25
2022-11-20T15:24:03.174Z,12.10
2022-11-20T15:29:35.749Z,11.55
2022-11-20T15:35:22.368Z,10.95
2022-11-20T15:37:54.882Z,13.38
2022-11-20T15:40:24.737Z,14.15
2022-11-20T15:43:11.399Z,10.73
2022-11-20T15:45:46.352Z,10.55
2022-11-20T15:48:18.894Z,13.73
2022-11-20T15:51:08.182Z,13.45
2022-11-20T15:53:35.557Z,10.05
2022-11-20T15:56:02.992Z,11.25
2022-11-20T15:58:30.577Z,11.23
2022-11-20T16:00:58.565Z,10.75
2022-11-20T16:03:25.902Z,11.57
2022-11-20T16:05:53.253Z,11.18
2022-11-20T16:08:20.549Z,13.82
2022-11-20T16:10:47.743Z,15.98
2022-11-20T16:13:35.437Z,9.75
2022-11-20T16:16:07.511Z,11.20
2022-11-20T16:21:02.271Z,6.93
2022-11-20T16:23:29.987Z,10.85
2022-11-20T16:25:57.214Z,12.77
2022-11-20T16:28:24.514Z,12.15
2022-11-20T16:30:51.826Z,14.75
2022-11-20T16:33:19.077Z,14.63
2022-11-20T16:35:46.399Z,12.15
2022-11-20T16:38:13.705Z,11.90
2022-11-20T16:40:40.912Z,13.75
2022-11-20T16:43:12.267Z,12.57
2022-11-20T16:45:41.552Z,11.02
2022-11-20T16:48:12.667Z,11.48
2022-11-20T16:50:45.952Z,10.43
2022-11-20T16:53:13.247Z,10.23
2022-11-20T16:55:40.459Z,10.82
2022-11-20T16:58:07.744Z,11.32
2022-11-20T17:00:36.985Z,10.23
2022-11-20T17:03:04.858Z,10.00
2022-11-20T17:05:32.801Z,10.68
2022-11-20T17:08:00.159Z,10.63
2022-11-20T17:10:28.236Z,12.10
2022-11-20T17:12:55.605Z,13.70
2022-11-20T17:15:22.915Z,11.05
2022-11-20T17:17:50.120Z,12.73
2022-11-20T17:20:17.367Z,11.02
2022-11-20T17:22:44.660Z,12.07
2022-11-20T17:25:11.877Z,10.48
2022-11-20T17:27:39.178Z,11.20
2022-11-20T17:30:06.674Z,11.13
2022-11-20T17:32:33.924Z,11.95
2022-11-20T17:35:01.607Z,10.95
2022-11-20T17:37:28.886Z,12.00
2022-11-20T17:39:56.119Z,10.70
2022-11-20T17:42:29.962Z,11.93
2022-11-20T17:44:58.850Z,9.63
2022-11-20T17:47:26.497Z,9.65
2022-11-20T17:49:55.341Z,8.85
2022-11-20T17:52:22.993Z,11.00
2022-11-20T17:54:53.101Z,13.02
2022-11-20T17:57:39.515Z,10.85
2022-11-20T18:00:07.381Z,10.35
2022-11-20T18:02:34.919Z,10.52
2022-11-20T18:05:03.185Z,14.07
2022-11-20T18:07:38.528Z,11.18
2022-11-20T18:10:09.597Z,11.38
2022-11-20T18:12:37.264Z,9.52
2022-11-20T18:15:05.593Z,9.43
2022-11-20T18:17:33.965Z,10.48
2022-11-20T18:22:53.367Z,9.18
2022-11-20T18:25:21.817Z,11.88
2022-11-20T18:27:50.404Z,12.18
2022-11-20T18:30:18.215Z,11.93
2022-11-20T18:32:48.226Z,13.15
2022-11-20T18:35:23.396Z,13.25
2022-11-20T18:37:50.925Z,13.25
2022-11-20T18:40:18.290Z,11.70
2022-11-20T18:43:04.053Z,11.85
2022-11-20T18:45:31.720Z,13.50
2022-11-20T18:48:00.171Z,14.52
2022-11-20T18:50:27.426Z,14.52
2022-11-20T18:52:54.737Z,18.80
2022-11-20T18:55:24.984Z,15.75
2022-11-20T18:57:52.731Z,15.48
2022-11-20T19:00:22.295Z,16.10
2022-11-20T19:02:54.434Z,13.45
2022-11-20T19:07:50.498Z,7.15
2022-11-20T19:10:28.763Z,9.27
2022-11-20T19:12:56.214Z,9.68
2022-11-20T19:15:23.574Z,10.18
2022-11-20T19:17:52.066Z,10.18
2022-11-20T19:20:20.622Z,11.52
2022-11-20T19:22:50.669Z,9.85
2022-11-20T19:25:18.077Z,9.38
2022-11-20T19:27:45.466Z,8.48
2022-11-20T19:30:13.211Z,11.63
2022-11-20T19:32:43.864Z,10.32
2022-11-20T19:35:28.574Z,11.82
2022-11-20T19:38:05.494Z,9.07
2022-11-20T19:40:39.909Z,10.40
2022-11-20T19:43:11.702Z,10.25
2022-11-20T19:45:52.220Z,11.30
2022-11-20T19:48:26.252Z,11.35
2022-11-20T19:50:57.400Z,12.40
2022-11-20T19:53:29.530Z,15.77
2022-11-20T19:56:00.641Z,16.40
2022-11-20T19:58:30.722Z,15.88
2022-11-20T20:01:06.839Z,16.38
2022-11-20T20:03:37.467Z,12.93
2022-11-20T20:06:07.365Z,10.75
2022-11-20T20:08:34.815Z,10.43
2022-11-20T20:11:10.219Z,11.85
2022-11-20T20:13:37.605Z,10.20
2022-11-20T20:16:15.537Z,10.80
2022-11-20T20:18:43.275Z,11.73
2022-11-20T20:21:12.196Z,14.95
2022-11-20T20:23:40.259Z,11.73
2022-11-20T20:26:08.946Z,11.10
2022-11-20T20:28:37.109Z,11.88
2022-11-20T20:31:08.554Z,11.77
2022-11-20T20:33:37.138Z,11.50
2022-11-20T20:36:08.265Z,9.40
2022-11-20T20:38:37.667Z,7.43
2022-11-20T20:41:05.608Z,9.10
2022-11-20T20:43:53.158Z,8.77
2022-11-20T20:46:21.260Z,7.53
2022-11-20T20:48:54.160Z,8.43
2022-11-20T20:51:23.315Z,8.20
2022-11-20T20:53:51.251Z,8.40
2022-11-20T20:56:19.075Z,9.82
2022-11-20T20:58:46.809Z,9.85
2022-11-20T21:01:15.981Z,8.82
2022-11-20T21:03:43.932Z,8.55
2022-11-20T21:06:12.435Z,8.95
2022-11-20T21:08:43.544Z,8.95
2022-11-20T21:11:17.149Z,8.30
2022-11-20T21:13:45.627Z,8.43
2022-11-20T21:16:14.190Z,8.88
2022-11-20T21:18:42.041Z,8.38
2022-11-20T21:21:30.646Z,6.53
2022-11-20T21:23:58.045Z,7.72
2022-11-20T21:26:26.516Z,9.15
2022-11-20T21:28:53.778Z,11.32
2022-11-20T21:31:22.227Z,12.23
2022-11-20T21:33:50.656Z,12.55
2022-11-20T21:36:27.839Z,12.38
2022-11-20T21:38:55.863Z,11.73
2022-11-20T21:41:23.848Z,9.82
2022-11-20T21:44:09.481Z,8.25
2022-11-20T21:46:40.108Z,7.90
2022-11-20T21:49:07.587Z,6.75
2022-11-20T21:51:34.840Z,7.28
2022-11-20T21:54:02.119Z,7.88
2022-11-20T21:56:29.427Z,7.75
2022-11-20T21:58:56.692Z,7.45
2022-11-20T22:01:28.460Z,7.63
2022-11-20T22:04:00.408Z,8.55
2022-11-20T22:06:32.247Z,8.20
2022-11-20T22:08:59.769Z,7.65
2022-11-20T22:11:27.302Z,7.70
2022-11-20T22:14:13.328Z,8.70
2022-11-20T22:16:40.576Z,8.23
2022-11-20T22:19:08.098Z,9.98
2022-11-20T22:21:35.633Z,7.43
2022-11-20T22:24:02.974Z,7.47
2022-11-20T22:26:33.955Z,7.32
2022-11-20T22:29:04.793Z,7.30
2022-11-20T22:31:32.542Z,8.25
2022-11-20T22:34:01.741Z,8.35
2022-11-20T22:36:30.045Z,6.78
2022-11-20T22:38:57.634Z,7.85
2022-11-20T22:41:27.537Z,7.57
2022-11-20T22:43:56.414Z,8.20
2022-11-20T22:46:24.000Z,8.57
2022-11-20T22:48:52.754Z,8.57
2022-11-20T22:51:21.351Z,8.50
2022-11-20T22:53:49.076Z,7.57
2022-11-20T22:56:17.103Z,8.48
2022-11-20T22:58:45.589Z,7.15
2022-11-20T23:01:17.130Z,8.27
2022-11-20T23:03:45.702Z,7.60
2022-11-20T23:06:13.389Z,6.95
2022-11-20T23:08:41.640Z,7.13
2022-11-20T23:11:10.636Z,7.53
2022-11-20T23:13:38.217Z,7.57
2022-11-20T23:16:09.768Z,8.48
2022-11-20T23:18:37.351Z,7.35
2022-11-20T23:21:05.489Z,8.38
2022-11-20T23:23:32.885Z,7.53
2022-11-20T23:26:03.766Z,7.55
2022-11-20T23:28:31.301Z,7.07
2022-11-20T23:30:58.796Z,7.30
2022-11-20T23:33:26.868Z,7.93
2022-11-20T23:35:54.131Z,6.85
2022-11-20T23:38:21.631Z,7.88
2022-11-20T23:40:49.590Z,7.88
2022-11-20T23:43:17.426Z,7.55
2022-11-20T23:45:45.966Z,6.45
2022-11-20T23:48:13.550Z,6.97
2022-11-20T23:50:41.273Z,7.72
2022-11-20T23:53:09.077Z,6.70
2022-11-20T23:55:36.507Z,7.65
2022-11-20T23:58:04.273Z,6.50
